sensor_id;sensor_type;location;lat;lon;timestamp;P1;durP1;ratioP1;P2;durP2;ratioP2
4055;SDS011;2043;52.184;8.690;2023-02-20T00:00:16;8.87;;;6.50;;
4055;SDS011;2043;52.184;8.690;2023-02-20T00:02:47;8.83;;;6.33;;
4055;SDS011;2043;52.184;8.690;2023-02-20T00:05:14;11.03;;;7.13;;
4055;SDS011;2043;52.184;8.690;2023-02-20T00:07:42;10.03;;;6.63;;
4055;SDS011;2043;52.184;8.690;2023-02-20T00:10:09;11.20;;;6.80;;
4055;SDS011;2043;52.184;8.690;2023-02-20T00:12:36;12.60;;;7.00;;
4055;SDS011;2043;52.184;8.690;2023-02-20T00:15:03;9.80;;;6.10;;
4055;SDS011;2043;52.184;8.690;2023-02-20T00:17:30;10.43;;;7.00;;
4055;SDS011;2043;52.184;8.690;2023-02-20T00:19:57;9.67;;;6.47;;
4055;SDS011;2043;52.184;8.690;2023-02-20T00:22:24;11.70;;;7.20;;
4055;SDS011;2043;52.184;8.690;2023-02-20T00:24:51;10.20;;;6.40;;
4055;SDS011;2043;52.184;8.690;2023-02-20T00:27:18;10.33;;;6.30;;
4055;SDS011;2043;52.184;8.690;2023-02-20T00:29:45;12.10;;;7.03;;
4055;SDS011;2043;52.184;8.690;2023-02-20T00:32:12;11.67;;;6.57;;
4055;SDS011;2043;52.184;8.690;2023-02-20T00:34:39;10.17;;;6.80;;
4055;SDS011;2043;52.184;8.690;2023-02-20T00:37:06;10.70;;;7.03;;
4055;SDS011;2043;52.184;8.690;2023-02-20T00:39:33;14.03;;;7.70;;
4055;SDS011;2043;52.184;8.690;2023-02-20T00:42:00;11.17;;;7.47;;
4055;SDS011;2043;52.184;8.690;2023-02-20T00:44:27;12.60;;;8.53;;
4055;SDS011;2043;52.184;8.690;2023-02-20T00:46:54;12.23;;;8.07;;
4055;SDS011;2043;52.184;8.690;2023-02-20T00:49:21;11.87;;;8.20;;
4055;SDS011;2043;52.184;8.690;2023-02-20T00:51:48;15.20;;;9.63;;
4055;SDS011;2043;52.184;8.690;2023-02-20T00:54:14;13.50;;;9.20;;
4055;SDS011;2043;52.184;8.690;2023-02-20T00:56:41;13.37;;;9.07;;
4055;SDS011;2043;52.184;8.690;2023-02-20T00:59:08;13.30;;;9.57;;
4055;SDS011;2043;52.184;8.690;2023-02-20T01:01:35;15.10;;;10.27;;
4055;SDS011;2043;52.184;8.690;2023-02-20T01:04:02;16.70;;;10.23;;
4055;SDS011;2043;52.184;8.690;2023-02-20T01:06:28;17.60;;;9.77;;
4055;SDS011;2043;52.184;8.690;2023-02-20T01:08:55;17.17;;;11.13;;
4055;SDS011;2043;52.184;8.690;2023-02-20T01:11:22;18.80;;;11.13;;
4055;SDS011;2043;52.184;8.690;2023-02-20T01:13:49;14.63;;;10.00;;
4055;SDS011;2043;52.184;8.690;2023-02-20T01:16:16;18.53;;;11.70;;
4055;SDS011;2043;52.184;8.690;2023-02-20T01:18:43;15.90;;;10.60;;
4055;SDS011;2043;52.184;8.690;2023-02-20T01:21:09;16.90;;;11.00;;
4055;SDS011;2043;52.184;8.690;2023-02-20T01:23:36;21.37;;;12.23;;
4055;SDS011;2043;52.184;8.690;2023-02-20T01:26:03;18.53;;;11.27;;
4055;SDS011;2043;52.184;8.690;2023-02-20T01:28:30;20.03;;;12.33;;
4055;SDS011;2043;52.184;8.690;2023-02-20T01:30:56;19.23;;;11.30;;
4055;SDS011;2043;52.184;8.690;2023-02-20T01:33:23;20.17;;;12.07;;
4055;SDS011;2043;52.184;8.690;2023-02-20T01:35:50;18.33;;;11.93;;
4055;SDS011;2043;52.184;8.690;2023-02-20T01:38:17;19.57;;;12.50;;
4055;SDS011;2043;52.184;8.690;2023-02-20T01:40:47;21.50;;;11.30;;
4055;SDS011;2043;52.184;8.690;2023-02-20T01:43:14;19.10;;;11.27;;
4055;SDS011;2043;52.184;8.690;2023-02-20T01:45:42;16.63;;;11.17;;
4055;SDS011;2043;52.184;8.690;2023-02-20T01:48:18;18.17;;;11.37;;
4055;SDS011;2043;52.184;8.690;2023-02-20T01:50:47;17.67;;;10.83;;
4055;SDS011;2043;52.184;8.690;2023-02-20T01:53:19;15.80;;;10.20;;
4055;SDS011;2043;52.184;8.690;2023-02-20T01:55:56;21.83;;;11.00;;
4055;SDS011;2043;52.184;8.690;2023-02-20T01:58:28;17.07;;;9.93;;
4055;SDS011;2043;52.184;8.690;2023-02-20T02:00:59;20.53;;;11.50;;
4055;SDS011;2043;52.184;8.690;2023-02-20T02:03:31;19.20;;;10.57;;
4055;SDS011;2043;52.184;8.690;2023-02-20T02:06:02;19.00;;;10.67;;
4055;SDS011;2043;52.184;8.690;2023-02-20T02:08:33;19.90;;;11.77;;
4055;SDS011;2043;52.184;8.690;2023-02-20T02:13:31;17.77;;;11.60;;
4055;SDS011;2043;52.184;8.690;2023-02-20T02:32:54;20.27;;;12.00;;
4055;SDS011;2043;52.184;8.690;2023-02-20T02:38:30;20.10;;;12.37;;
4055;SDS011;2043;52.184;8.690;2023-02-20T02:46:13;23.27;;;14.67;;
4055;SDS011;2043;52.184;8.690;2023-02-20T02:48:49;23.50;;;13.90;;
4055;SDS011;2043;52.184;8.690;2023-02-20T02:51:25;23.33;;;14.40;;
4055;SDS011;2043;52.184;8.690;2023-02-20T02:54:08;25.27;;;15.10;;
4055;SDS011;2043;52.184;8.690;2023-02-20T02:56:46;27.40;;;15.47;;
4055;SDS011;2043;52.184;8.690;2023-02-20T02:59:16;24.90;;;15.83;;
4055;SDS011;2043;52.184;8.690;2023-02-20T03:01:49;27.43;;;16.40;;
4055;SDS011;2043;52.184;8.690;2023-02-20T03:04:26;27.80;;;16.90;;
4055;SDS011;2043;52.184;8.690;2023-02-20T03:06:56;29.53;;;17.30;;
4055;SDS011;2043;52.184;8.690;2023-02-20T03:09:31;28.43;;;17.57;;
4055;SDS011;2043;52.184;8.690;2023-02-20T03:12:05;29.57;;;17.73;;
4055;SDS011;2043;52.184;8.690;2023-02-20T03:14:37;28.93;;;17.00;;
4055;SDS011;2043;52.184;8.690;2023-02-20T03:17:29;33.23;;;18.30;;
4055;SDS011;2043;52.184;8.690;2023-02-20T03:19:58;34.50;;;19.23;;
4055;SDS011;2043;52.184;8.690;2023-02-20T03:25:14;32.47;;;18.60;;
4055;SDS011;2043;52.184;8.690;2023-02-20T03:27:47;31.87;;;17.77;;
4055;SDS011;2043;52.184;8.690;2023-02-20T03:30:46;28.70;;;17.00;;
4055;SDS011;2043;52.184;8.690;2023-02-20T03:36:24;28.87;;;17.47;;
4055;SDS011;2043;52.184;8.690;2023-02-20T03:39:13;29.40;;;16.43;;
4055;SDS011;2043;52.184;8.690;2023-02-20T03:42:04;27.10;;;15.03;;
4055;SDS011;2043;52.184;8.690;2023-02-20T03:44:53;27.70;;;15.60;;
4055;SDS011;2043;52.184;8.690;2023-02-20T03:47:22;30.83;;;17.50;;
4055;SDS011;2043;52.184;8.690;2023-02-20T03:49:52;25.90;;;14.63;;
4055;SDS011;2043;52.184;8.690;2023-02-20T03:52:21;32.75;;;15.88;;
4055;SDS011;2043;52.184;8.690;2023-02-20T03:54:49;32.27;;;16.00;;
4055;SDS011;2043;52.184;8.690;2023-02-20T03:57:20;29.57;;;14.13;;
4055;SDS011;2043;52.184;8.690;2023-02-20T03:59:57;30.53;;;15.47;;
4055;SDS011;2043;52.184;8.690;2023-02-20T04:02:57;26.00;;;14.57;;
4055;SDS011;2043;52.184;8.690;2023-02-20T04:05:29;28.90;;;14.80;;
4055;SDS011;2043;52.184;8.690;2023-02-20T04:10:36;29.00;;;14.97;;
4055;SDS011;2043;52.184;8.690;2023-02-20T04:13:12;26.03;;;13.27;;
4055;SDS011;2043;52.184;8.690;2023-02-20T04:15:42;27.53;;;14.77;;
4055;SDS011;2043;52.184;8.690;2023-02-20T04:18:10;24.70;;;12.93;;
4055;SDS011;2043;52.184;8.690;2023-02-20T04:20:40;31.10;;;14.10;;
4055;SDS011;2043;52.184;8.690;2023-02-20T04:23:13;25.33;;;12.50;;
4055;SDS011;2043;52.184;8.690;2023-02-20T04:25:44;25.50;;;13.27;;
4055;SDS011;2043;52.184;8.690;2023-02-20T04:28:12;27.00;;;13.73;;
4055;SDS011;2043;52.184;8.690;2023-02-20T04:30:40;30.37;;;12.73;;
4055;SDS011;2043;52.184;8.690;2023-02-20T04:33:11;35.50;;;13.40;;
4055;SDS011;2043;52.184;8.690;2023-02-20T04:35:39;29.20;;;14.03;;
4055;SDS011;2043;52.184;8.690;2023-02-20T04:38:07;26.53;;;12.93;;
4055;SDS011;2043;52.184;8.690;2023-02-20T04:40:34;26.20;;;12.30;;
4055;SDS011;2043;52.184;8.690;2023-02-20T04:43:01;24.67;;;12.37;;
4055;SDS011;2043;52.184;8.690;2023-02-20T04:45:28;23.70;;;12.60;;
4055;SDS011;2043;52.184;8.690;2023-02-20T04:47:55;24.60;;;12.53;;
4055;SDS011;2043;52.184;8.690;2023-02-20T04:50:26;23.40;;;11.10;;
4055;SDS011;2043;52.184;8.690;2023-02-20T04:52:56;25.50;;;11.80;;
4055;SDS011;2043;52.184;8.690;2023-02-20T04:55:23;28.23;;;11.93;;
4055;SDS011;2043;52.184;8.690;2023-02-20T04:57:50;24.80;;;12.97;;
4055;SDS011;2043;52.184;8.690;2023-02-20T05:00:18;23.40;;;11.83;;
4055;SDS011;2043;52.184;8.690;2023-02-20T05:02:47;31.70;;;12.50;;
4055;SDS011;2043;52.184;8.690;2023-02-20T05:07:46;25.80;;;12.37;;
4055;SDS011;2043;52.184;8.690;2023-02-20T05:10:17;25.27;;;11.93;;
4055;SDS011;2043;52.184;8.690;2023-02-20T05:12:46;28.20;;;12.53;;
4055;SDS011;2043;52.184;8.690;2023-02-20T05:15:13;23.40;;;11.50;;
4055;SDS011;2043;52.184;8.690;2023-02-20T05:17:40;30.93;;;12.43;;
4055;SDS011;2043;52.184;8.690;2023-02-20T05:20:07;28.00;;;11.80;;
4055;SDS011;2043;52.184;8.690;2023-02-20T05:22:34;26.53;;;11.70;;
4055;SDS011;2043;52.184;8.690;2023-02-20T05:25:01;26.67;;;11.60;;
4055;SDS011;2043;52.184;8.690;2023-02-20T05:27:27;32.73;;;12.10;;
4055;SDS011;2043;52.184;8.690;2023-02-20T05:29:55;29.43;;;12.00;;
4055;SDS011;2043;52.184;8.690;2023-02-20T05:32:24;26.23;;;12.00;;
4055;SDS011;2043;52.184;8.690;2023-02-20T05:34:53;26.47;;;11.97;;
4055;SDS011;2043;52.184;8.690;2023-02-20T05:37:21;25.90;;;11.57;;
4055;SDS011;2043;52.184;8.690;2023-02-20T05:39:48;31.63;;;13.60;;
4055;SDS011;2043;52.184;8.690;2023-02-20T05:42:16;26.00;;;12.90;;
4055;SDS011;2043;52.184;8.690;2023-02-20T05:44:43;27.33;;;12.60;;
4055;SDS011;2043;52.184;8.690;2023-02-20T05:47:10;25.00;;;11.63;;
4055;SDS011;2043;52.184;8.690;2023-02-20T05:49:37;26.00;;;12.33;;
4055;SDS011;2043;52.184;8.690;2023-02-20T05:52:04;33.07;;;13.47;;
4055;SDS011;2043;52.184;8.690;2023-02-20T05:54:38;32.00;;;13.60;;
4055;SDS011;2043;52.184;8.690;2023-02-20T05:57:06;28.87;;;14.30;;
4055;SDS011;2043;52.184;8.690;2023-02-20T05:59:34;31.77;;;16.10;;
4055;SDS011;2043;52.184;8.690;2023-02-20T06:02:00;28.40;;;15.20;;
4055;SDS011;2043;52.184;8.690;2023-02-20T06:04:28;25.97;;;13.93;;
4055;SDS011;2043;52.184;8.690;2023-02-20T06:06:55;30.53;;;15.60;;
4055;SDS011;2043;52.184;8.690;2023-02-20T06:09:21;31.47;;;16.80;;
4055;SDS011;2043;52.184;8.690;2023-02-20T06:11:49;32.60;;;17.77;;
4055;SDS011;2043;52.184;8.690;2023-02-20T06:14:18;37.50;;;18.27;;
4055;SDS011;2043;52.184;8.690;2023-02-20T06:16:45;35.40;;;18.40;;
4055;SDS011;2043;52.184;8.690;2023-02-20T06:19:20;34.83;;;19.37;;
4055;SDS011;2043;52.184;8.690;2023-02-20T06:21:49;40.90;;;20.80;;
4055;SDS011;2043;52.184;8.690;2023-02-20T06:24:19;41.03;;;20.30;;
4055;SDS011;2043;52.184;8.690;2023-02-20T06:26:46;42.63;;;21.60;;
4055;SDS011;2043;52.184;8.690;2023-02-20T06:29:14;40.47;;;21.50;;
4055;SDS011;2043;52.184;8.690;2023-02-20T06:31:41;48.20;;;23.47;;
4055;SDS011;2043;52.184;8.690;2023-02-20T06:34:09;41.70;;;23.77;;
4055;SDS011;2043;52.184;8.690;2023-02-20T06:36:38;43.20;;;22.97;;
4055;SDS011;2043;52.184;8.690;2023-02-20T06:39:06;46.80;;;24.13;;
4055;SDS011;2043;52.184;8.690;2023-02-20T06:41:34;43.03;;;24.40;;
4055;SDS011;2043;52.184;8.690;2023-02-20T06:44:01;48.67;;;25.20;;
4055;SDS011;2043;52.184;8.690;2023-02-20T06:46:28;43.70;;;24.90;;
4055;SDS011;2043;52.184;8.690;2023-02-20T06:48:56;53.23;;;26.30;;
4055;SDS011;2043;52.184;8.690;2023-02-20T06:51:26;52.40;;;26.10;;
4055;SDS011;2043;52.184;8.690;2023-02-20T06:53:58;47.90;;;26.90;;
4055;SDS011;2043;52.184;8.690;2023-02-20T06:56:29;44.13;;;23.43;;
4055;SDS011;2043;52.184;8.690;2023-02-20T06:58:57;53.97;;;29.50;;
4055;SDS011;2043;52.184;8.690;2023-02-20T07:01:26;52.80;;;28.67;;
4055;SDS011;2043;52.184;8.690;2023-02-20T07:03:55;52.50;;;28.73;;
4055;SDS011;2043;52.184;8.690;2023-02-20T07:06:23;55.57;;;29.77;;
4055;SDS011;2043;52.184;8.690;2023-02-20T07:08:50;43.93;;;21.20;;
4055;SDS011;2043;52.184;8.690;2023-02-20T07:11:18;50.93;;;27.50;;
4055;SDS011;2043;52.184;8.690;2023-02-20T07:13:47;52.10;;;28.30;;
4055;SDS011;2043;52.184;8.690;2023-02-20T07:16:14;52.80;;;29.57;;
4055;SDS011;2043;52.184;8.690;2023-02-20T07:18:41;51.70;;;28.17;;
4055;SDS011;2043;52.184;8.690;2023-02-20T07:21:08;58.33;;;29.70;;
4055;SDS011;2043;52.184;8.690;2023-02-20T07:23:35;51.97;;;26.63;;
4055;SDS011;2043;52.184;8.690;2023-02-20T07:26:02;54.63;;;29.90;;
4055;SDS011;2043;52.184;8.690;2023-02-20T07:28:29;53.70;;;29.17;;
4055;SDS011;2043;52.184;8.690;2023-02-20T07:30:56;50.50;;;27.50;;
4055;SDS011;2043;52.184;8.690;2023-02-20T07:33:22;53.47;;;28.33;;
4055;SDS011;2043;52.184;8.690;2023-02-20T07:35:49;50.13;;;27.23;;
4055;SDS011;2043;52.184;8.690;2023-02-20T07:38:16;44.63;;;26.33;;
4055;SDS011;2043;52.184;8.690;2023-02-20T07:40:43;46.97;;;25.20;;
4055;SDS011;2043;52.184;8.690;2023-02-20T07:43:09;44.93;;;24.47;;
4055;SDS011;2043;52.184;8.690;2023-02-20T07:45:36;51.50;;;25.70;;
4055;SDS011;2043;52.184;8.690;2023-02-20T07:48:04;42.00;;;22.10;;
4055;SDS011;2043;52.184;8.690;2023-02-20T07:50:32;39.00;;;23.30;;
4055;SDS011;2043;52.184;8.690;2023-02-20T07:52:59;36.50;;;20.33;;
4055;SDS011;2043;52.184;8.690;2023-02-20T07:55:26;35.63;;;20.60;;
4055;SDS011;2043;52.184;8.690;2023-02-20T07:57:53;38.67;;;21.50;;
4055;SDS011;2043;52.184;8.690;2023-02-20T08:00:24;39.97;;;22.80;;
4055;SDS011;2043;52.184;8.690;2023-02-20T08:02:52;37.10;;;20.60;;
4055;SDS011;2043;52.184;8.690;2023-02-20T08:05:19;37.63;;;18.77;;
4055;SDS011;2043;52.184;8.690;2023-02-20T08:07:46;34.70;;;20.03;;
4055;SDS011;2043;52.184;8.690;2023-02-20T08:10:15;39.47;;;19.53;;
4055;SDS011;2043;52.184;8.690;2023-02-20T08:12:45;44.37;;;20.70;;
4055;SDS011;2043;52.184;8.690;2023-02-20T08:15:12;32.47;;;17.83;;
4055;SDS011;2043;52.184;8.690;2023-02-20T08:17:40;40.90;;;19.93;;
4055;SDS011;2043;52.184;8.690;2023-02-20T08:20:13;43.33;;;20.70;;
4055;SDS011;2043;52.184;8.690;2023-02-20T08:22:42;36.20;;;18.70;;
4055;SDS011;2043;52.184;8.690;2023-02-20T08:25:10;35.83;;;18.90;;
4055;SDS011;2043;52.184;8.690;2023-02-20T08:27:40;37.43;;;18.00;;
4055;SDS011;2043;52.184;8.690;2023-02-20T08:30:16;41.80;;;19.67;;
4055;SDS011;2043;52.184;8.690;2023-02-20T08:32:49;37.67;;;18.13;;
4055;SDS011;2043;52.184;8.690;2023-02-20T08:35:17;32.53;;;17.53;;
4055;SDS011;2043;52.184;8.690;2023-02-20T08:37:45;37.20;;;18.23;;
4055;SDS011;2043;52.184;8.690;2023-02-20T08:40:12;34.33;;;17.70;;
4055;SDS011;2043;52.184;8.690;2023-02-20T08:42:38;39.13;;;18.63;;
4055;SDS011;2043;52.184;8.690;2023-02-20T08:45:06;38.53;;;18.73;;
4055;SDS011;2043;52.184;8.690;2023-02-20T08:47:34;43.30;;;18.53;;
4055;SDS011;2043;52.184;8.690;2023-02-20T08:50:01;37.63;;;19.00;;
4055;SDS011;2043;52.184;8.690;2023-02-20T08:52:28;31.93;;;17.83;;
4055;SDS011;2043;52.184;8.690;2023-02-20T08:54:54;35.00;;;18.83;;
4055;SDS011;2043;52.184;8.690;2023-02-20T08:57:21;34.03;;;17.30;;
4055;SDS011;2043;52.184;8.690;2023-02-20T08:59:48;40.13;;;18.97;;
4055;SDS011;2043;52.184;8.690;2023-02-20T09:02:19;36.40;;;20.07;;
4055;SDS011;2043;52.184;8.690;2023-02-20T09:04:54;34.33;;;18.83;;
4055;SDS011;2043;52.184;8.690;2023-02-20T09:07:22;36.90;;;20.90;;
4055;SDS011;2043;52.184;8.690;2023-02-20T09:09:49;43.80;;;21.40;;
4055;SDS011;2043;52.184;8.690;2023-02-20T09:12:16;39.23;;;20.80;;
4055;SDS011;2043;52.184;8.690;2023-02-20T09:14:44;41.73;;;22.37;;
4055;SDS011;2043;52.184;8.690;2023-02-20T09:17:11;40.70;;;20.37;;
4055;SDS011;2043;52.184;8.690;2023-02-20T09:19:38;43.27;;;21.60;;
4055;SDS011;2043;52.184;8.690;2023-02-20T09:22:05;42.47;;;22.07;;
4055;SDS011;2043;52.184;8.690;2023-02-20T09:24:31;37.40;;;20.67;;
4055;SDS011;2043;52.184;8.690;2023-02-20T09:27:00;58.23;;;21.47;;
4055;SDS011;2043;52.184;8.690;2023-02-20T09:29:27;51.30;;;23.47;;
4055;SDS011;2043;52.184;8.690;2023-02-20T09:31:54;43.43;;;22.90;;
4055;SDS011;2043;52.184;8.690;2023-02-20T09:34:21;47.50;;;23.00;;
4055;SDS011;2043;52.184;8.690;2023-02-20T09:36:48;53.60;;;23.87;;
4055;SDS011;2043;52.184;8.690;2023-02-20T09:39:15;49.80;;;25.07;;
4055;SDS011;2043;52.184;8.690;2023-02-20T09:41:48;40.67;;;21.80;;
4055;SDS011;2043;52.184;8.690;2023-02-20T09:47:02;49.43;;;23.70;;
4055;SDS011;2043;52.184;8.690;2023-02-20T09:49:48;50.77;;;24.70;;
4055;SDS011;2043;52.184;8.690;2023-02-20T09:52:15;56.97;;;24.60;;
4055;SDS011;2043;52.184;8.690;2023-02-20T09:54:47;50.30;;;23.77;;
4055;SDS011;2043;52.184;8.690;2023-02-20T09:57:18;51.27;;;21.87;;
4055;SDS011;2043;52.184;8.690;2023-02-20T10:05:24;43.93;;;22.53;;
4055;SDS011;2043;52.184;8.690;2023-02-20T10:07:54;55.93;;;23.73;;
4055;SDS011;2043;52.184;8.690;2023-02-20T10:10:29;47.67;;;22.47;;
4055;SDS011;2043;52.184;8.690;2023-02-20T10:23:48;47.17;;;22.27;;
4055;SDS011;2043;52.184;8.690;2023-02-20T10:26:34;50.50;;;22.93;;
4055;SDS011;2043;52.184;8.690;2023-02-20T10:31:52;51.50;;;23.37;;
4055;SDS011;2043;52.184;8.690;2023-02-20T10:37:40;44.33;;;22.07;;
4055;SDS011;2043;52.184;8.690;2023-02-20T10:45:21;63.20;;;24.03;;
4055;SDS011;2043;52.184;8.690;2023-02-20T10:47:57;50.20;;;23.43;;
4055;SDS011;2043;52.184;8.690;2023-02-20T10:50:28;41.53;;;21.77;;
4055;SDS011;2043;52.184;8.690;2023-02-20T10:53:05;49.97;;;24.33;;
4055;SDS011;2043;52.184;8.690;2023-02-20T11:01:17;48.40;;;24.07;;
4055;SDS011;2043;52.184;8.690;2023-02-20T11:03:58;49.60;;;23.20;;
4055;SDS011;2043;52.184;8.690;2023-02-20T11:06:30;51.67;;;25.60;;
4055;SDS011;2043;52.184;8.690;2023-02-20T11:09:01;56.03;;;23.70;;
4055;SDS011;2043;52.184;8.690;2023-02-20T11:11:32;44.37;;;21.30;;
4055;SDS011;2043;52.184;8.690;2023-02-20T11:14:07;44.30;;;21.50;;
4055;SDS011;2043;52.184;8.690;2023-02-20T11:16:52;41.23;;;19.90;;
4055;SDS011;2043;52.184;8.690;2023-02-20T11:19:25;39.03;;;18.73;;
4055;SDS011;2043;52.184;8.690;2023-02-20T11:21:58;45.67;;;22.00;;
4055;SDS011;2043;52.184;8.690;2023-02-20T11:24:37;55.90;;;21.53;;
4055;SDS011;2043;52.184;8.690;2023-02-20T11:27:16;39.30;;;20.63;;
4055;SDS011;2043;52.184;8.690;2023-02-20T11:29:59;50.77;;;19.83;;
4055;SDS011;2043;52.184;8.690;2023-02-20T11:33:01;41.40;;;18.47;;
4055;SDS011;2043;52.184;8.690;2023-02-20T11:35:32;41.27;;;19.07;;
4055;SDS011;2043;52.184;8.690;2023-02-20T11:43:23;43.83;;;19.10;;
4055;SDS011;2043;52.184;8.690;2023-02-20T11:54:17;36.30;;;15.80;;
4055;SDS011;2043;52.184;8.690;2023-02-20T11:56:59;41.50;;;19.00;;
4055;SDS011;2043;52.184;8.690;2023-02-20T12:04:44;43.53;;;18.77;;
4055;SDS011;2043;52.184;8.690;2023-02-20T12:13:05;39.10;;;17.80;;
4055;SDS011;2043;52.184;8.690;2023-02-20T12:15:36;37.70;;;19.10;;
4055;SDS011;2043;52.184;8.690;2023-02-20T12:21:11;38.27;;;17.57;;
4055;SDS011;2043;52.184;8.690;2023-02-20T12:28:57;39.27;;;17.43;;
4055;SDS011;2043;52.184;8.690;2023-02-20T12:31:52;36.03;;;17.20;;
4055;SDS011;2043;52.184;8.690;2023-02-20T12:48:54;47.47;;;17.10;;
4055;SDS011;2043;52.184;8.690;2023-02-20T12:57:02;41.27;;;17.50;;
4055;SDS011;2043;52.184;8.690;2023-02-20T12:59:58;35.70;;;15.13;;
4055;SDS011;2043;52.184;8.690;2023-02-20T13:02:44;51.07;;;18.87;;
4055;SDS011;2043;52.184;8.690;2023-02-20T13:05:15;35.10;;;17.57;;
4055;SDS011;2043;52.184;8.690;2023-02-20T13:07:55;46.93;;;17.60;;
4055;SDS011;2043;52.184;8.690;2023-02-20T13:10:29;37.53;;;17.00;;
4055;SDS011;2043;52.184;8.690;2023-02-20T13:12:58;37.13;;;15.10;;
4055;SDS011;2043;52.184;8.690;2023-02-20T13:21:02;36.90;;;16.70;;
4055;SDS011;2043;52.184;8.690;2023-02-20T13:23:33;31.13;;;14.10;;
4055;SDS011;2043;52.184;8.690;2023-02-20T13:26:01;33.00;;;15.83;;
4055;SDS011;2043;52.184;8.690;2023-02-20T13:28:48;32.70;;;14.93;;
4055;SDS011;2043;52.184;8.690;2023-02-20T13:31:19;27.20;;;14.93;;
4055;SDS011;2043;52.184;8.690;2023-02-20T13:44:42;24.27;;;12.33;;
4055;SDS011;2043;52.184;8.690;2023-02-20T13:49:54;36.60;;;15.97;;
4055;SDS011;2043;52.184;8.690;2023-02-20T13:55:17;30.50;;;16.10;;
4055;SDS011;2043;52.184;8.690;2023-02-20T13:57:49;34.60;;;15.10;;
4055;SDS011;2043;52.184;8.690;2023-02-20T14:00:26;33.40;;;16.30;;
4055;SDS011;2043;52.184;8.690;2023-02-20T14:03:09;54.63;;;14.80;;
4055;SDS011;2043;52.184;8.690;2023-02-20T14:05:38;32.13;;;14.90;;
4055;SDS011;2043;52.184;8.690;2023-02-20T14:08:05;34.23;;;15.93;;
4055;SDS011;2043;52.184;8.690;2023-02-20T14:10:35;36.13;;;16.87;;
4055;SDS011;2043;52.184;8.690;2023-02-20T14:16:03;29.23;;;15.13;;
4055;SDS011;2043;52.184;8.690;2023-02-20T14:18:45;33.47;;;16.17;;
4055;SDS011;2043;52.184;8.690;2023-02-20T14:21:18;32.60;;;16.40;;
4055;SDS011;2043;52.184;8.690;2023-02-20T14:23:48;40.17;;;16.80;;
4055;SDS011;2043;52.184;8.690;2023-02-20T14:26:17;34.60;;;15.67;;
4055;SDS011;2043;52.184;8.690;2023-02-20T14:28:48;33.17;;;16.03;;
4055;SDS011;2043;52.184;8.690;2023-02-20T14:31:21;31.97;;;15.80;;
4055;SDS011;2043;52.184;8.690;2023-02-20T14:33:51;30.30;;;14.80;;
4055;SDS011;2043;52.184;8.690;2023-02-20T14:42:27;28.30;;;14.80;;
4055;SDS011;2043;52.184;8.690;2023-02-20T14:45:01;34.93;;;16.50;;
4055;SDS011;2043;52.184;8.690;2023-02-20T14:47:31;26.33;;;14.80;;
4055;SDS011;2043;52.184;8.690;2023-02-20T14:50:09;37.57;;;16.17;;
4055;SDS011;2043;52.184;8.690;2023-02-20T14:52:41;31.53;;;14.30;;
4055;SDS011;2043;52.184;8.690;2023-02-20T14:55:14;28.17;;;13.93;;
4055;SDS011;2043;52.184;8.690;2023-02-20T14:57:43;31.17;;;14.83;;
4055;SDS011;2043;52.184;8.690;2023-02-20T15:00:11;28.60;;;13.90;;
4055;SDS011;2043;52.184;8.690;2023-02-20T15:02:46;30.37;;;15.13;;
4055;SDS011;2043;52.184;8.690;2023-02-20T15:05:18;25.17;;;13.17;;
4055;SDS011;2043;52.184;8.690;2023-02-20T15:07:52;29.90;;;14.77;;
4055;SDS011;2043;52.184;8.690;2023-02-20T15:10:35;28.47;;;13.90;;
4055;SDS011;2043;52.184;8.690;2023-02-20T15:13:08;29.43;;;14.43;;
4055;SDS011;2043;52.184;8.690;2023-02-20T15:15:38;25.93;;;13.63;;
4055;SDS011;2043;52.184;8.690;2023-02-20T15:18:09;31.83;;;13.20;;
4055;SDS011;2043;52.184;8.690;2023-02-20T15:20:40;33.97;;;14.70;;
4055;SDS011;2043;52.184;8.690;2023-02-20T15:25:41;43.77;;;15.80;;
4055;SDS011;2043;52.184;8.690;2023-02-20T15:33:27;29.43;;;15.30;;
4055;SDS011;2043;52.184;8.690;2023-02-20T15:35:55;26.00;;;13.90;;
4055;SDS011;2043;52.184;8.690;2023-02-20T15:38:27;25.40;;;13.73;;
4055;SDS011;2043;52.184;8.690;2023-02-20T15:40:56;30.37;;;14.60;;
4055;SDS011;2043;52.184;8.690;2023-02-20T15:43:25;31.03;;;13.73;;
4055;SDS011;2043;52.184;8.690;2023-02-20T15:46:10;29.87;;;13.03;;
4055;SDS011;2043;52.184;8.690;2023-02-20T15:48:37;27.13;;;14.50;;
4055;SDS011;2043;52.184;8.690;2023-02-20T15:51:04;27.50;;;14.07;;
4055;SDS011;2043;52.184;8.690;2023-02-20T15:53:31;28.60;;;14.53;;
4055;SDS011;2043;52.184;8.690;2023-02-20T15:55:58;29.73;;;14.30;;
4055;SDS011;2043;52.184;8.690;2023-02-20T16:01:00;30.30;;;13.97;;
4055;SDS011;2043;52.184;8.690;2023-02-20T16:03:28;34.07;;;14.40;;
4055;SDS011;2043;52.184;8.690;2023-02-20T16:06:03;32.63;;;14.60;;
4055;SDS011;2043;52.184;8.690;2023-02-20T16:08:31;28.10;;;14.13;;
4055;SDS011;2043;52.184;8.690;2023-02-20T16:10:57;26.75;;;14.05;;
4055;SDS011;2043;52.184;8.690;2023-02-20T16:16:08;33.03;;;14.67;;
4055;SDS011;2043;52.184;8.690;2023-02-20T16:18:49;30.33;;;15.17;;
4055;SDS011;2043;52.184;8.690;2023-02-20T16:21:18;31.10;;;14.90;;
4055;SDS011;2043;52.184;8.690;2023-02-20T16:23:46;34.03;;;14.50;;
4055;SDS011;2043;52.184;8.690;2023-02-20T16:26:15;28.77;;;13.67;;
4055;SDS011;2043;52.184;8.690;2023-02-20T16:28:43;30.20;;;15.23;;
4055;SDS011;2043;52.184;8.690;2023-02-20T16:31:25;33.07;;;15.10;;
4055;SDS011;2043;52.184;8.690;2023-02-20T16:34:22;30.63;;;13.13;;
4055;SDS011;2043;52.184;8.690;2023-02-20T16:36:53;32.50;;;14.67;;
4055;SDS011;2043;52.184;8.690;2023-02-20T16:39:20;29.67;;;13.83;;
4055;SDS011;2043;52.184;8.690;2023-02-20T16:41:52;32.63;;;15.40;;
4055;SDS011;2043;52.184;8.690;2023-02-20T16:47:01;29.93;;;13.77;;
4055;SDS011;2043;52.184;8.690;2023-02-20T16:49:28;27.80;;;14.40;;
4055;SDS011;2043;52.184;8.690;2023-02-20T16:52:02;33.90;;;13.87;;
4055;SDS011;2043;52.184;8.690;2023-02-20T16:54:36;27.03;;;12.60;;
4055;SDS011;2043;52.184;8.690;2023-02-20T16:57:03;30.70;;;12.63;;
4055;SDS011;2043;52.184;8.690;2023-02-20T16:59:30;29.70;;;13.23;;
4055;SDS011;2043;52.184;8.690;2023-02-20T17:01:57;28.13;;;12.63;;
4055;SDS011;2043;52.184;8.690;2023-02-20T17:04:24;28.93;;;13.03;;
4055;SDS011;2043;52.184;8.690;2023-02-20T17:06:51;24.13;;;11.27;;
4055;SDS011;2043;52.184;8.690;2023-02-20T17:09:18;22.07;;;11.70;;
4055;SDS011;2043;52.184;8.690;2023-02-20T17:11:45;23.67;;;12.13;;
4055;SDS011;2043;52.184;8.690;2023-02-20T17:14:12;28.33;;;12.43;;
4055;SDS011;2043;52.184;8.690;2023-02-20T17:16:39;21.60;;;11.07;;
4055;SDS011;2043;52.184;8.690;2023-02-20T17:19:06;26.90;;;12.23;;
4055;SDS011;2043;52.184;8.690;2023-02-20T17:21:33;27.80;;;12.87;;
4055;SDS011;2043;52.184;8.690;2023-02-20T17:24:00;26.97;;;13.07;;
4055;SDS011;2043;52.184;8.690;2023-02-20T17:26:27;25.90;;;12.80;;
4055;SDS011;2043;52.184;8.690;2023-02-20T17:28:54;22.27;;;11.67;;
4055;SDS011;2043;52.184;8.690;2023-02-20T17:31:20;23.37;;;12.27;;
4055;SDS011;2043;52.184;8.690;2023-02-20T17:33:47;26.20;;;12.20;;
4055;SDS011;2043;52.184;8.690;2023-02-20T17:36:14;24.17;;;12.30;;
4055;SDS011;2043;52.184;8.690;2023-02-20T17:38:41;26.87;;;12.77;;
4055;SDS011;2043;52.184;8.690;2023-02-20T17:41:08;25.13;;;12.27;;
4055;SDS011;2043;52.184;8.690;2023-02-20T17:43:36;26.73;;;13.40;;
4055;SDS011;2043;52.184;8.690;2023-02-20T17:46:04;24.67;;;12.53;;
4055;SDS011;2043;52.184;8.690;2023-02-20T17:48:30;28.33;;;14.30;;
4055;SDS011;2043;52.184;8.690;2023-02-20T17:50:57;26.50;;;12.93;;
4055;SDS011;2043;52.184;8.690;2023-02-20T17:53:24;27.23;;;14.00;;
4055;SDS011;2043;52.184;8.690;2023-02-20T17:55:51;29.10;;;15.10;;
4055;SDS011;2043;52.184;8.690;2023-02-20T17:58:18;30.20;;;13.90;;
4055;SDS011;2043;52.184;8.690;2023-02-20T18:00:45;26.30;;;13.57;;